sensor_id;sensor_type;location;lat;lon;timestamp;temperature;humidity
40756;DHT22;26461;45.630;9.418;2022-11-04T00:02:12;14.00;99.90
40756;DHT22;26461;45.630;9.418;2022-11-04T00:05:16;14.00;99.90
40756;DHT22;26461;45.630;9.418;2022-11-04T00:08:28;14.00;99.90
40756;DHT22;26461;45.630;9.418;2022-11-04T00:11:35;14.00;99.90
40756;DHT22;26461;45.630;9.418;2022-11-04T00:15:04;14.00;99.90
40756;DHT22;26461;45.630;9.418;2022-11-04T00:18:28;14.00;99.90
40756;DHT22;26461;45.630;9.418;2022-11-04T00:21:38;14.00;99.90
40756;DHT22;26461;45.630;9.418;2022-11-04T00:25:08;14.00;99.90
40756;DHT22;26461;45.630;9.418;2022-11-04T00:28:39;13.90;99.90
40756;DHT22;26461;45.630;9.418;2022-11-04T00:31:46;14.00;99.90
40756;DHT22;26461;45.630;9.418;2022-11-04T00:35:10;13.90;99.90
40756;DHT22;26461;45.630;9.418;2022-11-04T00:38:17;13.90;99.90
40756;DHT22;26461;45.630;9.418;2022-11-04T00:41:26;13.90;99.90
40756;DHT22;26461;45.630;9.418;2022-11-04T00:44:32;13.90;99.90
40756;DHT22;26461;45.630;9.418;2022-11-04T00:47:37;13.90;99.90
40756;DHT22;26461;45.630;9.418;2022-11-04T00:50:52;14.00;99.90
40756;DHT22;26461;45.630;9.418;2022-11-04T00:54:01;14.30;99.90
40756;DHT22;26461;45.630;9.418;2022-11-04T00:57:12;14.00;99.90
40756;DHT22;26461;45.630;9.418;2022-11-04T01:00:17;13.90;99.90
40756;DHT22;26461;45.630;9.418;2022-11-04T01:07:24;13.90;99.90
40756;DHT22;26461;45.630;9.418;2022-11-04T01:10:35;13.90;99.90
40756;DHT22;26461;45.630;9.418;2022-11-04T01:13:41;14.00;99.90
40756;DHT22;26461;45.630;9.418;2022-11-04T01:16:51;13.90;99.90
40756;DHT22;26461;45.630;9.418;2022-11-04T01:19:56;13.90;99.90
40756;DHT22;26461;45.630;9.418;2022-11-04T01:23:03;13.90;99.90
40756;DHT22;26461;45.630;9.418;2022-11-04T01:26:15;13.90;99.90
40756;DHT22;26461;45.630;9.418;2022-11-04T01:29:20;13.90;99.90
40756;DHT22;26461;45.630;9.418;2022-11-04T01:32:27;13.90;99.90
40756;DHT22;26461;45.630;9.418;2022-11-04T01:35:36;13.90;99.90
40756;DHT22;26461;45.630;9.418;2022-11-04T01:38:54;13.90;99.90
40756;DHT22;26461;45.630;9.418;2022-11-04T01:41:59;13.90;99.90
40756;DHT22;26461;45.630;9.418;2022-11-04T01:45:14;13.90;99.90
40756;DHT22;26461;45.630;9.418;2022-11-04T01:48:31;13.90;99.90
40756;DHT22;26461;45.630;9.418;2022-11-04T01:51:39;13.90;99.90
40756;DHT22;26461;45.630;9.418;2022-11-04T01:54:47;13.90;99.90
40756;DHT22;26461;45.630;9.418;2022-11-04T01:58:00;13.80;99.90
40756;DHT22;26461;45.630;9.418;2022-11-04T02:01:11;13.80;99.90
40756;DHT22;26461;45.630;9.418;2022-11-04T02:04:16;13.70;99.90
40756;DHT22;26461;45.630;9.418;2022-11-04T02:07:38;13.80;99.90
40756;DHT22;26461;45.630;9.418;2022-11-04T02:10:59;13.70;99.90
40756;DHT22;26461;45.630;9.418;2022-11-04T02:14:04;13.60;99.90
40756;DHT22;26461;45.630;9.418;2022-11-04T02:20:49;13.60;99.90
40756;DHT22;26461;45.630;9.418;2022-11-04T02:31:00;13.70;99.90
40756;DHT22;26461;45.630;9.418;2022-11-04T02:44:34;13.50;99.90
40756;DHT22;26461;45.630;9.418;2022-11-04T02:47:45;13.40;99.90
40756;DHT22;26461;45.630;9.418;2022-11-04T02:51:21;13.40;99.90
40756;DHT22;26461;45.630;9.418;2022-11-04T02:54:43;13.30;99.90
40756;DHT22;26461;45.630;9.418;2022-11-04T02:57:54;13.30;99.90
40756;DHT22;26461;45.630;9.418;2022-11-04T03:01:01;13.20;99.90
40756;DHT22;26461;45.630;9.418;2022-11-04T03:04:17;13.10;99.90
40756;DHT22;26461;45.630;9.418;2022-11-04T03:07:29;13.10;99.90
40756;DHT22;26461;45.630;9.418;2022-11-04T03:10:42;13.10;99.90
40756;DHT22;26461;45.630;9.418;2022-11-04T03:14:04;13.00;99.90
40756;DHT22;26461;45.630;9.418;2022-11-04T03:17:37;13.00;99.90
40756;DHT22;26461;45.630;9.418;2022-11-04T03:20:45;12.90;99.90
40756;DHT22;26461;45.630;9.418;2022-11-04T03:23:52;12.90;99.90
40756;DHT22;26461;45.630;9.418;2022-11-04T03:27:28;12.90;99.90
40756;DHT22;26461;45.630;9.418;2022-11-04T03:30:46;12.80;99.90
40756;DHT22;26461;45.630;9.418;2022-11-04T03:33:57;12.70;99.90
40756;DHT22;26461;45.630;9.418;2022-11-04T03:37:04;12.70;99.90
40756;DHT22;26461;45.630;9.418;2022-11-04T03:40:09;12.70;99.90
40756;DHT22;26461;45.630;9.418;2022-11-04T03:43:25;12.70;99.90
40756;DHT22;26461;45.630;9.418;2022-11-04T03:46:33;12.60;99.90
40756;DHT22;26461;45.630;9.418;2022-11-04T03:49:38;12.60;99.90
40756;DHT22;26461;45.630;9.418;2022-11-04T03:52:44;12.70;99.90
40756;DHT22;26461;45.630;9.418;2022-11-04T04:02:55;12.70;99.90
40756;DHT22;26461;45.630;9.418;2022-11-04T04:06:15;12.70;99.90
40756;DHT22;26461;45.630;9.418;2022-11-04T04:09:50;13.30;99.90
40756;DHT22;26461;45.630;9.418;2022-11-04T04:13:02;12.80;99.90
40756;DHT22;26461;45.630;9.418;2022-11-04T04:16:16;12.80;99.90
40756;DHT22;26461;45.630;9.418;2022-11-04T04:19:22;12.90;99.90
40756;DHT22;26461;45.630;9.418;2022-11-04T04:22:35;12.80;99.90
40756;DHT22;26461;45.630;9.418;2022-11-04T04:25:43;12.80;99.90
40756;DHT22;26461;45.630;9.418;2022-11-04T04:29:12;12.70;99.90
40756;DHT22;26461;45.630;9.418;2022-11-04T04:32:24;12.70;99.90
40756;DHT22;26461;45.630;9.418;2022-11-04T04:35:39;12.30;99.90
40756;DHT22;26461;45.630;9.418;2022-11-04T04:38:53;12.00;99.90
40756;DHT22;26461;45.630;9.418;2022-11-04T04:42:22;11.90;99.90
40756;DHT22;26461;45.630;9.418;2022-11-04T04:45:51;11.70;99.90
40756;DHT22;26461;45.630;9.418;2022-11-04T04:49:05;11.60;99.90
40756;DHT22;26461;45.630;9.418;2022-11-04T04:52:10;11.70;99.90
40756;DHT22;26461;45.630;9.418;2022-11-04T04:55:15;11.50;99.90
40756;DHT22;26461;45.630;9.418;2022-11-04T04:58:21;11.40;99.90
40756;DHT22;26461;45.630;9.418;2022-11-04T05:01:28;11.30;99.90
40756;DHT22;26461;45.630;9.418;2022-11-04T05:04:33;11.30;99.90
40756;DHT22;26461;45.630;9.418;2022-11-04T05:07:38;11.40;99.90
40756;DHT22;26461;45.630;9.418;2022-11-04T05:10:43;11.30;99.90
40756;DHT22;26461;45.630;9.418;2022-11-04T05:13:48;11.30;99.90
40756;DHT22;26461;45.630;9.418;2022-11-04T05:16:55;11.20;99.90
40756;DHT22;26461;45.630;9.418;2022-11-04T05:19:59;11.20;99.90
40756;DHT22;26461;45.630;9.418;2022-11-04T05:23:05;11.20;99.90
40756;DHT22;26461;45.630;9.418;2022-11-04T05:26:16;11.20;99.90
40756;DHT22;26461;45.630;9.418;2022-11-04T05:29:21;11.10;99.90
40756;DHT22;26461;45.630;9.418;2022-11-04T05:32:31;11.20;99.90
40756;DHT22;26461;45.630;9.418;2022-11-04T05:35:36;11.20;99.90
40756;DHT22;26461;45.630;9.418;2022-11-04T05:38:41;11.30;99.90
40756;DHT22;26461;45.630;9.418;2022-11-04T05:41:50;11.10;99.90
40756;DHT22;26461;45.630;9.418;2022-11-04T05:44:55;11.50;99.90
40756;DHT22;26461;45.630;9.418;2022-11-04T05:48:02;11.10;99.90
40756;DHT22;26461;45.630;9.418;2022-11-04T05:51:07;11.30;99.90
40756;DHT22;26461;45.630;9.418;2022-11-04T05:54:18;11.00;99.90
40756;DHT22;26461;45.630;9.418;2022-11-04T05:57:23;10.90;99.90
40756;DHT22;26461;45.630;9.418;2022-11-04T06:00:28;11.00;99.90
40756;DHT22;26461;45.630;9.418;2022-11-04T06:03:42;10.90;99.90
40756;DHT22;26461;45.630;9.418;2022-11-04T06:06:47;11.40;99.90
40756;DHT22;26461;45.630;9.418;2022-11-04T06:09:52;10.80;99.90
40756;DHT22;26461;45.630;9.418;2022-11-04T06:12:59;11.50;99.90
40756;DHT22;26461;45.630;9.418;2022-11-04T06:16:03;11.00;99.90
40756;DHT22;26461;45.630;9.418;2022-11-04T06:19:12;11.00;99.90
40756;DHT22;26461;45.630;9.418;2022-11-04T06:22:19;11.10;99.90
40756;DHT22;26461;45.630;9.418;2022-11-04T06:25:26;11.20;99.90
40756;DHT22;26461;45.630;9.418;2022-11-04T06:28:31;11.10;99.90
40756;DHT22;26461;45.630;9.418;2022-11-04T06:31:37;11.10;99.90
40756;DHT22;26461;45.630;9.418;2022-11-04T06:34:43;11.20;99.90
40756;DHT22;26461;45.630;9.418;2022-11-04T06:37:48;11.30;99.90
40756;DHT22;26461;45.630;9.418;2022-11-04T06:40:58;11.40;99.90
40756;DHT22;26461;45.630;9.418;2022-11-04T06:44:08;11.50;99.90
40756;DHT22;26461;45.630;9.418;2022-11-04T06:47:18;11.60;99.90
40756;DHT22;26461;45.630;9.418;2022-11-04T06:50:28;11.60;99.90
40756;DHT22;26461;45.630;9.418;2022-11-04T06:53:37;11.60;99.90
40756;DHT22;26461;45.630;9.418;2022-11-04T06:56:47;11.70;99.90
40756;DHT22;26461;45.630;9.418;2022-11-04T06:59:59;11.70;99.90
40756;DHT22;26461;45.630;9.418;2022-11-04T07:03:10;11.80;99.90
40756;DHT22;26461;45.630;9.418;2022-11-04T07:06:20;11.90;99.90
40756;DHT22;26461;45.630;9.418;2022-11-04T07:09:26;12.10;99.90
40756;DHT22;26461;45.630;9.418;2022-11-04T07:12:38;12.20;99.90
40756;DHT22;26461;45.630;9.418;2022-11-04T07:15:43;12.30;99.90
40756;DHT22;26461;45.630;9.418;2022-11-04T07:18:54;12.30;99.90
40756;DHT22;26461;45.630;9.418;2022-11-04T07:22:04;12.40;99.90
40756;DHT22;26461;45.630;9.418;2022-11-04T07:25:14;12.40;99.90
40756;DHT22;26461;45.630;9.418;2022-11-04T07:28:24;12.50;99.90
40756;DHT22;26461;45.630;9.418;2022-11-04T07:31:34;12.60;99.90
40756;DHT22;26461;45.630;9.418;2022-11-04T07:34:43;12.60;99.90
40756;DHT22;26461;45.630;9.418;2022-11-04T07:37:54;12.70;99.90
40756;DHT22;26461;45.630;9.418;2022-11-04T07:41:05;12.70;99.90
40756;DHT22;26461;45.630;9.418;2022-11-04T07:44:16;12.80;99.90
40756;DHT22;26461;45.630;9.418;2022-11-04T07:47:31;12.80;99.90
40756;DHT22;26461;45.630;9.418;2022-11-04T07:50:41;12.80;99.90
40756;DHT22;26461;45.630;9.418;2022-11-04T07:53:51;12.80;99.90
40756;DHT22;26461;45.630;9.418;2022-11-04T07:57:02;12.80;99.90
40756;DHT22;26461;45.630;9.418;2022-11-04T08:00:13;12.80;99.90
40756;DHT22;26461;45.630;9.418;2022-11-04T08:03:23;12.80;99.90
40756;DHT22;26461;45.630;9.418;2022-11-04T08:06:34;12.90;99.90
40756;DHT22;26461;45.630;9.418;2022-11-04T08:09:44;12.90;98.70
40756;DHT22;26461;45.630;9.418;2022-11-04T08:12:54;12.80;99.00
40756;DHT22;26461;45.630;9.418;2022-11-04T08:16:12;12.80;99.10
40756;DHT22;26461;45.630;9.418;2022-11-04T08:19:17;12.80;99.00
40756;DHT22;26461;45.630;9.418;2022-11-04T08:22:29;12.70;99.10
40756;DHT22;26461;45.630;9.418;2022-11-04T08:25:39;12.70;99.30
40756;DHT22;26461;45.630;9.418;2022-11-04T08:28:50;12.80;99.30
40756;DHT22;26461;45.630;9.418;2022-11-04T08:32:00;12.80;99.30
40756;DHT22;26461;45.630;9.418;2022-11-04T08:35:10;12.80;99.40
40756;DHT22;26461;45.630;9.418;2022-11-04T08:38:21;12.80;99.90
40756;DHT22;26461;45.630;9.418;2022-11-04T08:41:31;12.80;99.60
40756;DHT22;26461;45.630;9.418;2022-11-04T08:44:41;12.90;99.60
40756;DHT22;26461;45.630;9.418;2022-11-04T08:47:46;13.00;99.90
40756;DHT22;26461;45.630;9.418;2022-11-04T08:50:57;13.00;99.90
40756;DHT22;26461;45.630;9.418;2022-11-04T08:54:07;13.10;99.90
40756;DHT22;26461;45.630;9.418;2022-11-04T08:57:18;13.10;99.90
40756;DHT22;26461;45.630;9.418;2022-11-04T09:00:29;13.10;99.90
40756;DHT22;26461;45.630;9.418;2022-11-04T09:03:41;13.30;99.90
40756;DHT22;26461;45.630;9.418;2022-11-04T09:06:53;13.40;98.40
40756;DHT22;26461;45.630;9.418;2022-11-04T09:10:06;13.50;96.40
40756;DHT22;26461;45.630;9.418;2022-11-04T09:13:17;13.60;96.40
40756;DHT22;26461;45.630;9.418;2022-11-04T09:16:29;13.70;96.00
40756;DHT22;26461;45.630;9.418;2022-11-04T09:19:40;13.80;95.30
40756;DHT22;26461;45.630;9.418;2022-11-04T09:22:50;13.80;94.70
40756;DHT22;26461;45.630;9.418;2022-11-04T09:26:13;13.90;95.90
40756;DHT22;26461;45.630;9.418;2022-11-04T09:29:24;14.00;94.70
40756;DHT22;26461;45.630;9.418;2022-11-04T09:32:35;14.10;95.50
40756;DHT22;26461;45.630;9.418;2022-11-04T09:35:56;14.20;94.70
40756;DHT22;26461;45.630;9.418;2022-11-04T09:39:06;14.30;93.30
40756;DHT22;26461;45.630;9.418;2022-11-04T09:45:41;14.50;91.90
40756;DHT22;26461;45.630;9.418;2022-11-04T09:48:54;14.60;91.50
40756;DHT22;26461;45.630;9.418;2022-11-04T09:52:25;14.60;91.10
40756;DHT22;26461;45.630;9.418;2022-11-04T09:55:59;14.70;89.90
40756;DHT22;26461;45.630;9.418;2022-11-04T09:59:15;14.70;90.30
40756;DHT22;26461;45.630;9.418;2022-11-04T10:02:39;14.80;86.70
40756;DHT22;26461;45.630;9.418;2022-11-04T10:09:46;14.90;92.90
40756;DHT22;26461;45.630;9.418;2022-11-04T10:26:52;14.80;95.80
40756;DHT22;26461;45.630;9.418;2022-11-04T10:33:23;14.80;96.40
40756;DHT22;26461;45.630;9.418;2022-11-04T10:36:37;14.80;95.80
40756;DHT22;26461;45.630;9.418;2022-11-04T10:39:49;14.90;96.50
40756;DHT22;26461;45.630;9.418;2022-11-04T10:43:03;14.80;95.80
40756;DHT22;26461;45.630;9.418;2022-11-04T10:46:23;14.90;95.30
40756;DHT22;26461;45.630;9.418;2022-11-04T10:53:14;14.80;94.90
40756;DHT22;26461;45.630;9.418;2022-11-04T10:56:36;14.90;94.90
40756;DHT22;26461;45.630;9.418;2022-11-04T11:00:00;14.90;94.30
40756;DHT22;26461;45.630;9.418;2022-11-04T11:06:35;15.00;92.50
40756;DHT22;26461;45.630;9.418;2022-11-04T11:09:52;15.10;92.40
40756;DHT22;26461;45.630;9.418;2022-11-04T11:13:00;15.10;91.70
40756;DHT22;26461;45.630;9.418;2022-11-04T11:16:26;15.20;91.70
40756;DHT22;26461;45.630;9.418;2022-11-04T11:19:57;15.20;91.60
40756;DHT22;26461;45.630;9.418;2022-11-04T11:26:43;15.40;92.70
40756;DHT22;26461;45.630;9.418;2022-11-04T11:29:57;15.50;92.60
40756;DHT22;26461;45.630;9.418;2022-11-04T11:36:36;15.50;93.30
40756;DHT22;26461;45.630;9.418;2022-11-04T11:39:47;15.60;94.10
40756;DHT22;26461;45.630;9.418;2022-11-04T11:42:58;15.60;94.10
40756;DHT22;26461;45.630;9.418;2022-11-04T11:46:10;15.70;93.80
40756;DHT22;26461;45.630;9.418;2022-11-04T11:49:32;15.70;93.90
40756;DHT22;26461;45.630;9.418;2022-11-04T11:52:45;15.80;93.60
40756;DHT22;26461;45.630;9.418;2022-11-04T11:59:43;15.80;93.50
40756;DHT22;26461;45.630;9.418;2022-11-04T12:03:10;15.90;93.60
40756;DHT22;26461;45.630;9.418;2022-11-04T12:06:36;15.90;93.50
40756;DHT22;26461;45.630;9.418;2022-11-04T12:10:02;15.90;93.50
40756;DHT22;26461;45.630;9.418;2022-11-04T12:13:18;16.00;93.50
40756;DHT22;26461;45.630;9.418;2022-11-04T12:20:21;16.00;93.20
40756;DHT22;26461;45.630;9.418;2022-11-04T12:23:39;16.10;93.80
40756;DHT22;26461;45.630;9.418;2022-11-04T12:33:16;16.20;94.40
40756;DHT22;26461;45.630;9.418;2022-11-04T12:40:26;16.30;94.10
40756;DHT22;26461;45.630;9.418;2022-11-04T12:47:34;16.50;94.40
40756;DHT22;26461;45.630;9.418;2022-11-04T13:01:00;16.70;94.60
40756;DHT22;26461;45.630;9.418;2022-11-04T13:04:49;16.70;95.00
40756;DHT22;26461;45.630;9.418;2022-11-04T13:11:44;16.90;93.90
40756;DHT22;26461;45.630;9.418;2022-11-04T13:15:00;17.00;92.70
40756;DHT22;26461;45.630;9.418;2022-11-04T13:18:18;17.10;92.90
40756;DHT22;26461;45.630;9.418;2022-11-04T13:21:34;17.20;92.90
40756;DHT22;26461;45.630;9.418;2022-11-04T13:25:06;17.20;92.70
40756;DHT22;26461;45.630;9.418;2022-11-04T13:28:17;17.30;93.00
40756;DHT22;26461;45.630;9.418;2022-11-04T13:38:23;17.50;92.90
40756;DHT22;26461;45.630;9.418;2022-11-04T13:41:39;17.60;92.80
40756;DHT22;26461;45.630;9.418;2022-11-04T13:44:56;17.70;92.10
40756;DHT22;26461;45.630;9.418;2022-11-04T13:48:11;17.80;92.10
40756;DHT22;26461;45.630;9.418;2022-11-04T13:51:22;17.80;92.10
40756;DHT22;26461;45.630;9.418;2022-11-04T13:54:43;17.90;92.20
40756;DHT22;26461;45.630;9.418;2022-11-04T13:58:03;18.00;92.60
40756;DHT22;26461;45.630;9.418;2022-11-04T14:04:32;18.20;92.50
40756;DHT22;26461;45.630;9.418;2022-11-04T14:11:11;18.40;92.20
40756;DHT22;26461;45.630;9.418;2022-11-04T14:14:21;18.50;92.50
40756;DHT22;26461;45.630;9.418;2022-11-04T14:21:08;18.60;92.20
40756;DHT22;26461;45.630;9.418;2022-11-04T14:24:20;18.60;91.70
40756;DHT22;26461;45.630;9.418;2022-11-04T14:27:38;18.60;91.60
40756;DHT22;26461;45.630;9.418;2022-11-04T14:30:51;18.60;91.30
40756;DHT22;26461;45.630;9.418;2022-11-04T14:34:01;18.70;91.20
40756;DHT22;26461;45.630;9.418;2022-11-04T14:37:23;18.70;90.00
40756;DHT22;26461;45.630;9.418;2022-11-04T14:40:48;18.80;90.60
40756;DHT22;26461;45.630;9.418;2022-11-04T14:47:46;19.00;91.50
40756;DHT22;26461;45.630;9.418;2022-11-04T14:50:57;19.20;91.20
40756;DHT22;26461;45.630;9.418;2022-11-04T14:54:29;19.30;91.20
40756;DHT22;26461;45.630;9.418;2022-11-04T14:57:47;19.30;90.60
40756;DHT22;26461;45.630;9.418;2022-11-04T15:01:00;19.20;90.20
40756;DHT22;26461;45.630;9.418;2022-11-04T15:04:22;19.10;90.60
40756;DHT22;26461;45.630;9.418;2022-11-04T15:07:39;19.00;90.90
40756;DHT22;26461;45.630;9.418;2022-11-04T15:10:49;18.90;90.90
40756;DHT22;26461;45.630;9.418;2022-11-04T15:13:59;18.70;91.00
40756;DHT22;26461;45.630;9.418;2022-11-04T15:17:17;18.70;91.50
40756;DHT22;26461;45.630;9.418;2022-11-04T15:20:30;18.60;92.00
40756;DHT22;26461;45.630;9.418;2022-11-04T15:23:43;18.60;92.30
40756;DHT22;26461;45.630;9.418;2022-11-04T15:26:58;18.40;91.90
40756;DHT22;26461;45.630;9.418;2022-11-04T15:30:26;18.30;92.10
40756;DHT22;26461;45.630;9.418;2022-11-04T15:33:46;18.10;92.20
40756;DHT22;26461;45.630;9.418;2022-11-04T15:37:01;17.90;92.40
40756;DHT22;26461;45.630;9.418;2022-11-04T15:40:13;17.70;92.50
40756;DHT22;26461;45.630;9.418;2022-11-04T15:43:26;17.60;92.70
40756;DHT22;26461;45.630;9.418;2022-11-04T15:46:35;17.50;92.80
40756;DHT22;26461;45.630;9.418;2022-11-04T15:49:47;17.50;93.40
40756;DHT22;26461;45.630;9.418;2022-11-04T15:52:58;17.30;93.10
40756;DHT22;26461;45.630;9.418;2022-11-04T15:56:08;17.20;93.40
40756;DHT22;26461;45.630;9.418;2022-11-04T15:59:38;17.00;93.50
40756;DHT22;26461;45.630;9.418;2022-11-04T16:02:55;16.80;93.80
40756;DHT22;26461;45.630;9.418;2022-11-04T16:06:07;16.60;94.30
40756;DHT22;26461;45.630;9.418;2022-11-04T16:09:21;16.50;94.60
40756;DHT22;26461;45.630;9.418;2022-11-04T16:12:35;16.40;95.00
40756;DHT22;26461;45.630;9.418;2022-11-04T16:15:52;16.40;95.40
40756;DHT22;26461;45.630;9.418;2022-11-04T16:19:19;16.30;95.50
40756;DHT22;26461;45.630;9.418;2022-11-04T16:22:33;16.30;96.20
40756;DHT22;26461;45.630;9.418;2022-11-04T16:25:45;16.30;96.70
40756;DHT22;26461;45.630;9.418;2022-11-04T16:28:57;16.20;97.10
40756;DHT22;26461;45.630;9.418;2022-11-04T16:35:32;16.10;97.50
40756;DHT22;26461;45.630;9.418;2022-11-04T16:38:42;16.00;96.70
40756;DHT22;26461;45.630;9.418;2022-11-04T16:41:52;15.90;94.80
40756;DHT22;26461;45.630;9.418;2022-11-04T16:45:03;15.80;94.30
40756;DHT22;26461;45.630;9.418;2022-11-04T16:48:16;15.80;93.60
40756;DHT22;26461;45.630;9.418;2022-11-04T16:51:26;15.70;92.60
40756;DHT22;26461;45.630;9.418;2022-11-04T16:54:31;15.70;92.20
40756;DHT22;26461;45.630;9.418;2022-11-04T16:57:41;15.60;91.70
40756;DHT22;26461;45.630;9.418;2022-11-04T17:00:53;15.60;91.40
40756;DHT22;26461;45.630;9.418;2022-11-04T17:04:02;15.50;91.50
40756;DHT22;26461;45.630;9.418;2022-11-04T17:07:15;15.40;91.60
40756;DHT22;26461;45.630;9.418;2022-11-04T17:10:27;15.40;91.50
40756;DHT22;26461;45.630;9.418;2022-11-04T17:13:37;15.30;91.50
40756;DHT22;26461;45.630;9.418;2022-11-04T17:16:48;15.30;91.90
40756;DHT22;26461;45.630;9.418;2022-11-04T17:19:58;15.20;92.00
40756;DHT22;26461;45.630;9.418;2022-11-04T17:23:11;15.20;92.20
40756;DHT22;26461;45.630;9.418;2022-11-04T17:26:22;15.10;92.40
40756;DHT22;26461;45.630;9.418;2022-11-04T17:29:33;15.10;92.60
40756;DHT22;26461;45.630;9.418;2022-11-04T17:32:43;15.00;92.60
40756;DHT22;26461;45.630;9.418;2022-11-04T17:35:49;14.90;92.70
40756;DHT22;26461;45.630;9.418;2022-11-04T17:38:55;14.80;92.90
40756;DHT22;26461;45.630;9.418;2022-11-04T17:42:05;14.80;94.00
40756;DHT22;26461;45.630;9.418;2022-11-04T17:45:30;14.70;94.70
40756;DHT22;26461;45.630;9.418;2022-11-04T17:48:40;14.60;94.60
40756;DHT22;26461;45.630;9.418;2022-11-04T17:51:55;14.50;94.90
40756;DHT22;26461;45.630;9.418;2022-11-04T17:55:07;14.40;95.00
40756;DHT22;26461;45.630;9.418;2022-11-04T17:58:16;14.30;95.50
40756;DHT22;26461;45.630;9.418;2022-11-04T18:01:27;14.20;95.40
40756;DHT22;26461;45.630;9.418;2022-11-04T18:04:37;14.10;95.20
40756;DHT22;26461;45.630;9.418;2022-11-04T18:07:47;14.10;96.20
40756;DHT22;26461;45.630;9.418;2022-11-04T18:10:58;14.00;96.40
40756;DHT22;26461;45.630;9.418;2022-11-04T18:14:09;14.00;96.70
40756;DHT22;26461;45.630;9.418;2022-11-04T18:17:19;13.90;97.80
40756;DHT22;26461;45.630;9.418;2022-11-04T18:20:33;13.90;97.70
40756;DHT22;26461;45.630;9.418;2022-11-04T18:23:44;13.90;97.60
40756;DHT22;26461;45.630;9.418;2022-11-04T18:26:56;13.80;97.40
40756;DHT22;26461;45.630;9.418;2022-11-04T18:30:07;13.80;97.30
40756;DHT22;26461;45.630;9.418;2022-11-04T18:33:16;13.80;97.30
40756;DHT22;26461;45.630;9.418;2022-11-04T18:36:27;13.80;97.00
40756;DHT22;26461;45.630;9.418;2022-11-04T18:39:33;13.70;96.90
40756;DHT22;26461;45.630;9.418;2022-11-04T18:42:46;13.70;97.50
40756;DHT22;26461;45.630;9.418;2022-11-04T18:46:11;13.60;97.20
40756;DHT22;26461;45.630;9.418;2022-11-04T18:49:24;13.60;98.50
40756;DHT22;26461;45.630;9.418;2022-11-04T18:52:36;13.60;98.70
40756;DHT22;26461;45.630;9.418;2022-11-04T18:55:51;13.50;99.00
40756;DHT22;26461;45.630;9.418;2022-11-04T18:58:58;13.50;99.50
40756;DHT22;26461;45.630;9.418;2022-11-04T19:02:04;13.50;99.00
40756;DHT22;26461;45.630;9.418;2022-11-04T19:05:14;13.40;99.50
40756;DHT22;26461;45.630;9.418;2022-11-04T19:08:20;13.30;99.90
40756;DHT22;26461;45.630;9.418;2022-11-04T19:11:30;13.30;99.90
40756;DHT22;26461;45.630;9.418;2022-11-04T19:15:01;13.30;99.90
40756;DHT22;26461;45.630;9.418;2022-11-04T19:18:10;13.30;99.90
40756;DHT22;26461;45.630;9.418;2022-11-04T19:21:22;13.30;99.90
40756;DHT22;26461;45.630;9.418;2022-11-04T19:24:32;13.30;99.90
40756;DHT22;26461;45.630;9.418;2022-11-04T19:27:42;13.20;99.90
40756;DHT22;26461;45.630;9.418;2022-11-04T19:31:18;13.20;99.90
40756;DHT22;26461;45.630;9.418;2022-11-04T19:34:29;13.20;99.90
40756;DHT22;26461;45.630;9.418;2022-11-04T19:37:39;13.20;99.90
40756;DHT22;26461;45.630;9.418;2022-11-04T19:40:52;13.20;99.90
40756;DHT22;26461;45.630;9.418;2022-11-04T19:44:05;13.20;99.90
40756;DHT22;26461;45.630;9.418;2022-11-04T19:47:19;13.20;99.90
40756;DHT22;26461;45.630;9.418;2022-11-04T19:50:43;13.20;99.90
40756;DHT22;26461;45.630;9.418;2022-11-04T19:54:31;13.20;99.90
40756;DHT22;26461;45.630;9.418;2022-11-04T20:01:44;13.10;99.90
40756;DHT22;26461;45.630;9.418;2022-11-04T20:04:58;13.10;99.90
40756;DHT22;26461;45.630;9.418;2022-11-04T20:08:35;13.10;99.90
40756;DHT22;26461;45.630;9.418;2022-11-04T20:11:47;13.10;99.90
40756;DHT22;26461;45.630;9.418;2022-11-04T20:15:12;13.10;99.90
40756;DHT22;26461;45.630;9.418;2022-11-04T20:18:27;13.00;99.90
40756;DHT22;26461;45.630;9.418;2022-11-04T20:21:40;13.10;99.90
40756;DHT22;26461;45.630;9.418;2022-11-04T20:24:53;13.10;99.90
40756;DHT22;26461;45.630;9.418;2022-11-04T20:28:12;13.10;99.90
40756;DHT22;26461;45.630;9.418;2022-11-04T20:31:30;13.10;99.90
40756;DHT22;26461;45.630;9.418;2022-11-04T20:39:29;13.10;99.90
40756;DHT22;26461;45.630;9.418;2022-11-04T20:42:35;13.20;99.90
40756;DHT22;26461;45.630;9.418;2022-11-04T20:45:42;13.20;99.90
40756;DHT22;26461;45.630;9.418;2022-11-04T20:48:52;13.20;99.90
40756;DHT22;26461;45.630;9.418;2022-11-04T20:52:02;13.20;99.90
40756;DHT22;26461;45.630;9.418;2022-11-04T21:00:35;13.10;99.90
40756;DHT22;26461;45.630;9.418;2022-11-04T21:03:54;13.10;99.90
40756;DHT22;26461;45.630;9.418;2022-11-04T21:07:07;13.10;99.90
40756;DHT22;26461;45.630;9.418;2022-11-04T21:10:15;13.10;99.90
40756;DHT22;26461;45.630;9.418;2022-11-04T21:13:21;13.10;99.90
40756;DHT22;26461;45.630;9.418;2022-11-04T21:16:36;13.10;99.90
40756;DHT22;26461;45.630;9.418;2022-11-04T21:19:53;13.00;99.90
40756;DHT22;26461;45.630;9.418;2022-11-04T21:23:10;13.00;99.90
40756;DHT22;26461;45.630;9.418;2022-11-04T21:26:23;12.90;99.90
40756;DHT22;26461;45.630;9.418;2022-11-04T21:34:02;12.80;99.90
40756;DHT22;26461;45.630;9.418;2022-11-04T21:37:39;12.70;99.90
40756;DHT22;26461;45.630;9.418;2022-11-04T21:41:20;12.60;99.90
40756;DHT22;26461;45.630;9.418;2022-11-04T21:45:04;12.60;99.90
40756;DHT22;26461;45.630;9.418;2022-11-04T21:48:19;12.60;99.90
40756;DHT22;26461;45.630;9.418;2022-11-04T21:51:34;12.50;99.90
40756;DHT22;26461;45.630;9.418;2022-11-04T21:59:17;12.50;99.90
40756;DHT22;26461;45.630;9.418;2022-11-04T22:02:27;12.50;99.90
40756;DHT22;26461;45.630;9.418;2022-11-04T22:05:39;12.40;99.90
40756;DHT22;26461;45.630;9.418;2022-11-04T22:08:50;12.40;99.90
40756;DHT22;26461;45.630;9.418;2022-11-04T22:12:06;12.40;99.90
40756;DHT22;26461;45.630;9.418;2022-11-04T22:15:19;12.30;99.90
40756;DHT22;26461;45.630;9.418;2022-11-04T22:18:53;12.30;99.90
40756;DHT22;26461;45.630;9.418;2022-11-04T22:22:29;12.30;99.90
40756;DHT22;26461;45.630;9.418;2022-11-04T22:25:39;12.30;99.90
40756;DHT22;26461;45.630;9.418;2022-11-04T22:28:51;12.20;99.90
40756;DHT22;26461;45.630;9.418;2022-11-04T22:32:06;12.20;99.90
40756;DHT22;26461;45.630;9.418;2022-11-04T22:35:12;12.10;99.90
40756;DHT22;26461;45.630;9.418;2022-11-04T22:38:50;12.00;99.90
40756;DHT22;26461;45.630;9.418;2022-11-04T22:42:00;12.00;99.90
40756;DHT22;26461;45.630;9.418;2022-11-04T22:55:40;11.80;99.90
40756;DHT22;26461;45.630;9.418;2022-11-04T22:59:15;11.80;99.90
40756;DHT22;26461;45.630;9.418;2022-11-04T23:02:56;11.80;99.90
40756;DHT22;26461;45.630;9.418;2022-11-04T23:06:10;11.70;99.90